Time;durP1;ratioP1;P1;durP2;ratioP2;P2;SDS_P1;SDS_P2;PMS_P1;PMS_P2;Temp;Humidity;BMP_temperature;BMP_pressure;BME280_temperature;BME280_humidity;BME280_pressure;Samples;Min_cycle;Max_cycle;Signal;HPM_P1;HPM_P2
2024/01/10 00:01:00;;;;;;;0.32;0.32;;;;;;;0.53;58.51;103113.41;4894664;29;20405;-86
2024/01/10 00:03:26;;;;;;;0.30;0.30;;;;;;;0.44;59.00;103124.13;4892335;29;20481;-86
2024/01/10 00:05:52;;;;;;;0.20;0.20;;;;;;;0.43;58.84;103118.94;4908969;29;20400;-85
2024/01/10 00:08:17;;;;;;;0.53;0.53;;;;;;;0.33;58.47;103124.44;4893662;29;20397;-84
2024/01/10 00:10:43;;;;;;;0.32;0.32;;;;;;;0.10;58.25;103129.44;4909282;29;20785;-86
2024/01/10 00:13:08;;;;;;;0.25;0.25;;;;;;;-0.23;57.91;103116.41;4901912;29;20402;-86
2024/01/10 00:15:34;;;;;;;0.30;0.30;;;;;;;-0.35;58.31;103124.56;4909197;29;20398;-85
2024/01/10 00:17:59;;;;;;;0.40;0.40;;;;;;;-0.40;58.36;103130.75;4908054;29;20433;-85
2024/01/10 00:20:25;;;;;;;0.25;0.25;;;;;;;-0.56;57.51;103129.41;4909368;29;20417;-87
2024/01/10 00:22:51;;;;;;;0.55;0.55;;;;;;;-0.75;57.34;103133.38;4901423;29;20469;-85
2024/01/10 00:25:17;;;;;;;0.30;0.30;;;;;;;-0.84;57.61;103134.44;4892128;29;20405;-85
2024/01/10 00:27:42;;;;;;;0.22;0.22;;;;;;;-0.96;57.26;103131.19;4893250;29;20406;-85
2024/01/10 00:30:08;;;;;;;1.10;1.10;;;;;;;-1.01;57.29;103130.47;4892365;29;21087;-86
2024/01/10 00:32:34;;;;;;;0.32;0.32;;;;;;;-1.05;56.68;103122.75;4892264;29;20430;-85
2024/01/10 00:34:59;;;;;;;1.50;1.40;;;;;;;-1.25;56.65;103131.88;4891971;29;20814;-85
2024/01/10 00:37:27;;;;;;;0.57;0.57;;;;;;;-1.29;56.75;103129.38;4892217;29;20953;-86
2024/01/10 00:39:55;;;;;;;0.60;0.60;;;;;;;-1.26;56.37;103132.78;4893334;29;20463;-86
2024/01/10 00:42:21;;;;;;;0.70;0.70;;;;;;;-1.43;56.92;103124.47;4893190;29;20902;-85
2024/01/10 00:44:46;;;;;;;0.30;0.30;;;;;;;-1.43;56.48;103116.66;4894598;29;20398;-85
2024/01/10 00:47:17;;;;;;;0.85;0.50;;;;;;;-1.32;56.21;103121.63;4904573;29;20838;-85
2024/01/10 00:49:42;;;;;;;0.80;0.80;;;;;;;-1.39;56.20;103113.97;4900242;29;20398;-86
2024/01/10 00:52:08;;;;;;;0.37;0.37;;;;;;;-1.38;55.73;103122.63;4897271;29;20405;-85
2024/01/10 00:54:34;;;;;;;0.57;0.57;;;;;;;-1.64;55.67;103108.44;4896648;29;20422;-84
2024/01/10 00:56:59;;;;;;;0.23;0.23;;;;;;;-1.74;56.31;103117.31;4896202;29;20403;-85
2024/01/10 00:59:25;;;;;;;0.83;0.83;;;;;;;-1.60;55.95;103123.06;4911689;29;20513;-85
2024/01/10 01:01:50;;;;;;;1.73;1.37;;;;;;;-1.78;55.77;103111.31;4898320;29;20786;-87
2024/01/10 01:04:16;;;;;;;0.53;0.53;;;;;;;-1.78;55.75;103115.66;4906048;29;20473;-84
2024/01/10 01:06:41;;;;;;;0.57;0.52;;;;;;;-1.77;55.70;103118.19;4908083;29;20405;-85
2024/01/10 01:09:13;;;;;;;0.40;0.40;;;;;;;-1.77;55.72;103119.97;4898423;29;20418;-86
2024/01/10 01:11:39;;;;;;;0.35;0.30;;;;;;;-1.85;55.38;103114.06;4897613;29;20770;-87
2024/01/10 01:14:04;;;;;;;0.40;0.40;;;;;;;-1.78;55.62;103116.50;4897448;29;20466;-85
2024/01/10 01:16:30;;;;;;;0.35;0.30;;;;;;;-1.87;55.40;103113.22;4897587;29;20473;-88
2024/01/10 01:18:55;;;;;;;0.52;0.45;;;;;;;-1.92;55.37;103103.78;4897040;29;20487;-85
2024/01/10 01:21:21;;;;;;;0.50;0.50;;;;;;;-1.98;55.66;103101.31;4896202;29;20808;-88
2024/01/10 01:23:47;;;;;;;0.40;0.30;;;;;;;-2.12;55.67;103105.91;4898743;29;20858;-83
2024/01/10 01:26:14;;;;;;;0.60;0.30;;;;;;;-2.07;55.64;103100.59;4911769;29;20398;-85
2024/01/10 01:28:40;;;;;;;0.77;0.40;;;;;;;-1.96;55.87;103103.88;4913939;29;20450;-83
2024/01/10 01:31:05;;;;;;;0.73;0.52;;;;;;;-1.93;55.25;103109.88;4910497;29;20431;-83
2024/01/10 01:33:31;;;;;;;0.95;0.70;;;;;;;-1.95;55.29;103111.63;4903714;29;20902;-85
2024/01/10 01:35:59;;;;;;;0.80;0.40;;;;;;;-2.12;55.07;103109.34;4896036;29;20397;-87
2024/01/10 01:38:24;;;;;;;2.15;1.10;;;;;;;-2.22;55.17;103113.00;4893991;29;20420;-86
2024/01/10 01:40:50;;;;;;;0.95;0.40;;;;;;;-2.34;55.27;103106.28;4897447;29;20469;-88
2024/01/10 01:43:25;;;;;;;0.50;0.30;;;;;;;-2.45;54.97;103116.00;4896916;29;20480;-86
2024/01/10 01:45:53;;;;;;;1.33;0.50;;;;;;;-2.56;55.23;103104.94;4893379;29;20402;-86
2024/01/10 01:48:23;;;;;;;0.55;0.30;;;;;;;-2.60;55.31;103101.53;4895239;29;20928;-86
2024/01/10 01:50:54;;;;;;;1.00;0.50;;;;;;;-2.52;55.48;103094.50;4895708;29;20390;-86
2024/01/10 01:53:20;;;;;;;1.20;0.70;;;;;;;-2.41;54.89;103091.72;4892699;29;20491;-87
2024/01/10 01:55:46;;;;;;;0.75;0.50;;;;;;;-2.44;54.74;103091.75;4892386;29;20455;-87
2024/01/10 01:58:12;;;;;;;1.35;0.80;;;;;;;-2.61;54.85;103089.47;4894253;29;20410;-85
2024/01/10 02:00:39;;;;;;;0.32;0.20;;;;;;;-2.81;55.36;103089.78;4895491;29;20406;-83
2024/01/10 02:03:06;;;;;;;0.40;0.20;;;;;;;-2.79;55.17;103076.75;4895789;29;20406;-88
2024/01/10 02:05:32;;;;;;;0.40;0.30;;;;;;;-2.76;55.56;103076.72;4894419;29;20398;-88
2024/01/10 02:07:58;;;;;;;0.40;0.40;;;;;;;-2.74;55.22;103077.53;4894623;29;20398;-85
2024/01/10 02:10:24;;;;;;;0.85;0.35;;;;;;;-2.80;55.75;103068.13;4893504;29;20410;-88
2024/01/10 02:12:49;;;;;;;0.70;0.70;;;;;;;-2.67;55.45;103076.56;4898325;29;20409;-85
2024/01/10 02:15:16;;;;;;;0.85;0.40;;;;;;;-2.62;54.84;103066.13;4879020;29;20412;-87
2024/01/10 02:17:42;;;;;;;0.35;0.30;;;;;;;-2.69;54.86;103071.38;4893987;29;20497;-86
2024/01/10 02:20:13;;;;;;;0.88;0.40;;;;;;;-2.71;54.96;103070.56;4893568;29;20493;-87
2024/01/10 02:22:38;;;;;;;1.92;0.60;;;;;;;-2.78;55.17;103075.88;4879021;29;20497;-87
2024/01/10 02:25:09;;;;;;;2.78;1.98;;;;;;;-3.00;55.42;103077.97;4895115;29;20398;-86
2024/01/10 02:27:36;;;;;;;0.40;0.30;;;;;;;-3.10;55.85;103082.44;4893078;29;20885;-89
2024/01/10 02:30:06;;;;;;;1.60;1.00;;;;;;;-3.16;55.85;103074.75;4893338;29;20770;-90
2024/01/10 02:32:32;;;;;;;0.70;0.50;;;;;;;-3.29;56.06;103067.16;4892928;29;20462;-89
2024/01/10 02:34:58;;;;;;;0.65;0.30;;;;;;;-3.34;55.91;103065.50;4894512;29;20406;-90
2024/01/10 02:37:24;;;;;;;0.83;0.63;;;;;;;-3.30;56.05;103073.19;4893292;29;20402;-85
2024/01/10 02:39:49;;;;;;;0.45;0.40;;;;;;;-3.28;56.41;103063.69;4893586;29;20810;-88
2024/01/10 02:42:16;;;;;;;0.20;0.20;;;;;;;-3.12;56.10;103064.28;4894037;29;20648;-87
2024/01/10 02:44:41;;;;;;;1.17;1.07;;;;;;;-3.22;55.57;103054.97;4895728;29;20845;-85
2024/01/10 02:47:07;;;;;;;0.30;0.30;;;;;;;-3.25;55.94;103062.78;4895588;29;20402;-84
2024/01/10 02:49:33;;;;;;;0.32;0.30;;;;;;;-3.08;55.99;103067.69;4902149;29;20399;-91
2024/01/10 02:52:01;;;;;;;1.60;0.90;;;;;;;-2.96;55.79;103059.72;4906898;29;20450;-89
2024/01/10 02:54:27;;;;;;;0.65;0.65;;;;;;;-2.98;55.32;103045.06;4894453;29;20414;-85
2024/01/10 02:56:52;;;;;;;0.25;0.25;;;;;;;-3.12;55.40;103045.28;4894330;29;20471;-86
2024/01/10 02:59:18;;;;;;;0.50;0.50;;;;;;;-3.29;55.85;103061.97;4895180;29;20802;-86
2024/01/10 03:01:47;;;;;;;0.38;0.38;;;;;;;-3.60;56.81;103047.69;4894299;29;20409;-86
2024/01/10 03:04:12;;;;;;;1.20;1.20;;;;;;;-3.43;56.29;103055.28;4895474;29;20463;-89
2024/01/10 03:06:38;;;;;;;0.30;0.30;;;;;;;-3.58;56.74;103054.59;4899824;29;20402;-87
2024/01/10 03:09:04;;;;;;;0.37;0.30;;;;;;;-3.51;56.34;103042.38;4906455;29;20494;-85
2024/01/10 03:11:30;;;;;;;0.30;0.30;;;;;;;-3.36;56.28;103046.53;4906708;29;20421;-88
2024/01/10 03:14:22;;;;;;;0.20;0.20;;;;;;;-3.36;55.68;103046.53;4893796;29;20405;-88
2024/01/10 03:16:48;;;;;;;0.60;0.60;;;;;;;-3.37;55.73;103052.56;4892134;29;20482;-84
2024/01/10 03:19:14;;;;;;;0.35;0.35;;;;;;;-3.42;55.82;103039.69;4893363;29;20428;-87
2024/01/10 03:21:39;;;;;;;0.60;0.60;;;;;;;-3.44;55.73;103044.00;4894344;29;20785;-86
2024/01/10 03:24:05;;;;;;;0.90;0.90;;;;;;;-3.49;55.77;103054.47;4894237;29;20395;-86
2024/01/10 03:26:31;;;;;;;0.40;0.40;;;;;;;-3.34;55.76;103048.19;4893306;29;20439;-84
2024/01/10 03:28:57;;;;;;;0.30;0.30;;;;;;;-3.24;55.40;103045.47;4892947;29;20468;-88
2024/01/10 03:31:23;;;;;;;0.57;0.57;;;;;;;-3.17;55.57;103040.19;4894279;29;20399;-85
2024/01/10 03:33:50;;;;;;;0.20;0.20;;;;;;;-3.25;55.36;103039.44;4893077;29;20469;-86
2024/01/10 03:36:17;;;;;;;0.50;0.50;;;;;;;-3.26;54.99;103035.09;4894413;29;20491;-86
2024/01/10 03:38:46;;;;;;;0.60;0.60;;;;;;;-3.20;55.65;103029.84;4892972;29;20418;-86
2024/01/10 03:41:19;;;;;;;0.70;0.70;;;;;;;-3.09;54.95;103027.94;4892059;29;20976;-88
2024/01/10 03:43:44;;;;;;;0.38;0.30;;;;;;;-3.04;54.42;103019.22;4890641;29;20852;-87
2024/01/10 03:46:11;;;;;;;0.17;0.17;;;;;;;-2.96;54.53;103027.75;4892011;29;20406;-88
2024/01/10 03:48:38;;;;;;;0.20;0.20;;;;;;;-2.99;54.44;103027.78;4891757;29;20982;-87
2024/01/10 03:51:04;;;;;;;0.60;0.60;;;;;;;-3.11;54.42;103021.91;4892484;29;20817;-85
2024/01/10 03:53:30;;;;;;;0.30;0.30;;;;;;;-3.10;54.42;103027.94;4894214;29;20402;-87
2024/01/10 03:55:56;;;;;;;0.20;0.20;;;;;;;-3.16;54.69;103020.28;4893021;29;20545;-88
2024/01/10 03:58:22;;;;;;;0.28;0.22;;;;;;;-3.25;54.63;103015.25;4892648;29;20417;-85
2024/01/10 04:00:47;;;;;;;0.55;0.55;;;;;;;-3.33;54.30;103015.34;4904287;29;20912;-86
2024/01/10 04:03:13;;;;;;;0.80;0.80;;;;;;;-3.46;54.69;103020.72;4911282;29;20484;-89
2024/01/10 04:05:39;;;;;;;0.40;0.40;;;;;;;-3.65;54.74;103029.63;4912022;29;20934;-89
2024/01/10 04:08:05;;;;;;;1.10;0.90;;;;;;;-3.89;54.71;103018.72;4911863;29;20487;-87
2024/01/10 04:10:30;;;;;;;1.10;1.00;;;;;;;-3.88;54.84;103029.94;4927390;29;20920;-88
2024/01/10 04:12:56;;;;;;;2.20;2.00;;;;;;;-3.97;54.57;103011.91;4911610;29;20461;-86
2024/01/10 04:15:22;;;;;;;0.43;0.40;;;;;;;-3.89;54.72;103018.72;4911243;29;20424;-88
2024/01/10 04:17:48;;;;;;;0.40;0.40;;;;;;;-3.92;54.32;103018.75;4910582;29;20776;-86
2024/01/10 04:20:13;;;;;;;0.40;0.40;;;;;;;-3.98;54.53;103030.91;4910623;29;20404;-87
2024/01/10 04:22:39;;;;;;;0.20;0.20;;;;;;;-4.05;54.96;103028.41;4912293;29;20510;-90
2024/01/10 04:25:07;;;;;;;1.52;1.42;;;;;;;-4.12;54.51;103036.28;4901512;29;20465;-87
2024/01/10 04:27:32;;;;;;;0.45;0.45;;;;;;;-4.34;55.44;103036.53;4894113;29;20414;-86
2024/01/10 04:29:58;;;;;;;0.40;0.40;;;;;;;-4.41;55.58;103029.69;4894434;29;20394;-86
2024/01/10 04:32:24;;;;;;;0.20;0.20;;;;;;;-4.66;55.49;103042.88;4896276;29;20437;-85
2024/01/10 04:34:49;;;;;;;0.40;0.40;;;;;;;-4.93;56.49;103043.97;4897584;29;20410;-86
2024/01/10 04:37:15;;;;;;;0.23;0.23;;;;;;;-4.86;56.72;103042.16;4895423;29;20469;-86
2024/01/10 04:39:42;;;;;;;1.80;1.70;;;;;;;-5.00;56.80;103050.91;4894078;29;20454;-86
2024/01/10 04:42:10;;;;;;;0.90;0.90;;;;;;;-5.03;57.11;103057.84;4894681;29;20424;-87
2024/01/10 04:44:37;;;;;;;1.17;0.93;;;;;;;-5.10;57.09;103048.41;4896108;29;20456;-87
2024/01/10 04:47:04;;;;;;;0.10;0.10;;;;;;;-5.27;57.36;103049.38;4895033;29;20398;-87
2024/01/10 04:49:29;;;;;;;0.50;0.32;;;;;;;-5.17;57.68;103052.75;4898267;29;20529;-85
2024/01/10 04:51:55;;;;;;;0.50;0.50;;;;;;;-5.10;57.61;103045.81;4911555;29;20410;-86
2024/01/10 04:54:27;;;;;;;0.30;0.30;;;;;;;-4.87;56.87;103046.50;4893687;29;20525;-86
2024/01/10 04:56:56;;;;;;;0.70;0.70;;;;;;;-4.68;56.75;103057.56;4894733;29;20441;-86
2024/01/10 04:59:22;;;;;;;0.73;0.73;;;;;;;-4.73;56.65;103055.88;4896121;29;20508;-83
2024/01/10 05:01:57;;;;;;;0.10;0.10;;;;;;;-4.78;56.39;103052.47;4898053;29;20406;-87
2024/01/10 05:04:22;;;;;;;0.28;0.28;;;;;;;-4.74;56.81;103054.16;4896953;29;20459;-85
2024/01/10 05:06:51;;;;;;;0.57;0.57;;;;;;;-4.67;56.56;103063.56;4895386;29;20398;-84
2024/01/10 05:09:16;;;;;;;0.90;0.90;;;;;;;-4.83;57.05;103049.91;4896613;29;20413;-86
2024/01/10 05:11:42;;;;;;;1.70;1.60;;;;;;;-4.82;56.58;103054.22;4907666;29;20873;-84
2024/01/10 05:14:08;;;;;;;4.20;3.90;;;;;;;-4.74;56.69;103062.75;4898306;29;20414;-88
2024/01/10 05:16:33;;;;;;;0.63;0.63;;;;;;;-4.66;56.28;103058.41;4896877;29;20434;-88
2024/01/10 05:19:03;;;;;;;0.60;0.60;;;;;;;-4.53;56.57;103055.69;4897319;29;20426;-87
2024/01/10 05:21:30;;;;;;;0.20;0.20;;;;;;;-4.34;56.45;103064.13;4898031;29;20917;-85
2024/01/10 05:23:56;;;;;;;2.63;2.42;;;;;;;-4.33;55.86;103063.25;4895121;29;20429;-88
2024/01/10 05:26:22;;;;;;;0.32;0.32;;;;;;;-4.48;55.90;103059.09;4894151;29;20413;-86
2024/01/10 05:28:47;;;;;;;0.77;0.73;;;;;;;-4.56;56.52;103053.13;4894224;29;20429;-87
2024/01/10 05:31:13;;;;;;;0.30;0.30;;;;;;;-4.48;56.20;103061.69;4895364;29;20969;-87
2024/01/10 05:33:39;;;;;;;0.20;0.20;;;;;;;-4.55;56.73;103072.97;4903057;29;20410;-86
2024/01/10 05:36:07;;;;;;;1.30;1.20;;;;;;;-4.44;56.47;103071.13;4893487;29;21292;-82
2024/01/10 05:38:33;;;;;;;1.10;1.10;;;;;;;-4.39;56.26;103066.78;4896058;29;20421;-83
2024/01/10 05:40:58;;;;;;;0.45;0.45;;;;;;;-4.33;56.02;103066.69;4894402;29;20398;-84
2024/01/10 05:43:24;;;;;;;0.60;0.60;;;;;;;-4.23;56.08;103065.75;4896100;29;20935;-85
2024/01/10 05:45:50;;;;;;;0.50;0.50;;;;;;;-4.11;55.57;103069.06;4895093;29;20402;-86
2024/01/10 05:48:17;;;;;;;0.47;0.47;;;;;;;-3.99;56.29;103078.44;4894195;29;20965;-84
2024/01/10 05:50:42;;;;;;;0.50;0.50;;;;;;;-3.97;55.33;103071.50;4896107;29;20418;-85
2024/01/10 05:53:10;;;;;;;0.47;0.47;;;;;;;-4.04;55.83;103065.53;4896578;29;20988;-85
2024/01/10 05:55:36;;;;;;;2.88;1.40;;;;;;;-3.98;55.84;103057.72;4893922;29;20908;-86
2024/01/10 05:58:05;;;;;;;0.30;0.30;;;;;;;-3.88;55.56;103064.47;4902093;29;20426;-84
2024/01/10 06:00:36;;;;;;;0.45;0.45;;;;;;;-3.81;55.32;103064.41;4894954;29;20419;-85
2024/01/10 06:03:04;;;;;;;0.13;0.13;;;;;;;-3.77;55.40;103058.31;4877866;29;20548;-85
2024/01/10 06:05:31;;;;;;;1.02;0.95;;;;;;;-3.78;55.40;103066.94;4894920;29;20448;-85
2024/01/10 06:07:57;;;;;;;0.30;0.30;;;;;;;-3.88;55.25;103072.25;4894343;29;20462;-85
2024/01/10 06:10:22;;;;;;;2.60;1.10;;;;;;;-3.81;55.19;103067.00;4894767;29;20422;-85
2024/01/10 06:12:49;;;;;;;0.50;0.50;;;;;;;-3.80;55.36;103071.28;4895370;29;20406;-85
2024/01/10 06:15:15;;;;;;;0.45;0.45;;;;;;;-3.75;54.83;103078.13;4877534;29;20426;-85
2024/01/10 06:17:41;;;;;;;0.20;0.20;;;;;;;-3.80;55.11;103077.31;4894943;29;20553;-85
2024/01/10 06:20:07;;;;;;;0.10;0.10;;;;;;;-3.73;55.05;103075.53;4913612;29;20401;-84
2024/01/10 06:22:33;;;;;;;0.10;0.10;;;;;;;-3.63;54.74;103086.66;4887799;29;20429;-85
2024/01/10 06:25:01;;;;;;;0.40;0.40;;;;;;;-3.55;54.52;103097.75;4908104;29;20417;-85
2024/01/10 06:27:26;;;;;;;0.20;0.20;;;;;;;-3.55;54.61;103098.59;4890061;29;20821;-85
2024/01/10 06:29:53;;;;;;;0.70;0.70;;;;;;;-3.57;54.29;103095.19;4896608;29;20406;-89
2024/01/10 06:32:22;;;;;;;0.20;0.20;;;;;;;-3.49;54.84;103090.78;4915463;29;20408;-85
2024/01/10 06:34:53;;;;;;;0.50;0.50;;;;;;;-3.38;54.52;103098.41;4901948;29;20528;-86
2024/01/10 06:37:20;;;;;;;0.73;0.73;;;;;;;-3.40;54.55;103091.50;4896309;29;20484;-85
2024/01/10 06:39:48;;;;;;;0.35;0.35;;;;;;;-3.35;54.44;103092.31;4895036;29;20445;-85
2024/01/10 06:42:14;;;;;;;0.60;0.60;;;;;;;-3.37;54.63;103092.31;4900065;29;20410;-85
2024/01/10 06:44:39;;;;;;;0.10;0.10;;;;;;;-3.33;54.46;103090.53;4906111;29;20396;-85
2024/01/10 06:47:12;;;;;;;0.32;0.32;;;;;;;-3.21;54.11;103089.53;4919009;29;20932;-86
2024/01/10 06:49:38;;;;;;;0.20;0.20;;;;;;;-3.16;54.35;103093.75;4897547;29;20400;-83
2024/01/10 06:52:07;;;;;;;1.65;1.55;;;;;;;-3.10;54.50;103088.50;4914342;29;20423;-86
2024/01/10 06:54:35;;;;;;;0.98;0.98;;;;;;;-3.01;54.27;103084.88;4903284;29;20838;-85
2024/01/10 06:57:00;;;;;;;1.60;1.50;;;;;;;-2.90;54.42;103093.38;4896734;29;20417;-85
2024/01/10 06:59:28;;;;;;;0.30;0.30;;;;;;;-2.78;54.44;103087.13;4895156;29;20422;-84
2024/01/10 07:01:56;;;;;;;0.10;0.10;;;;;;;-2.66;54.12;103085.22;4908716;29;20448;-83
2024/01/10 07:04:23;;;;;;;2.55;2.40;;;;;;;-2.60;54.21;103088.56;4905356;29;20413;-84
2024/01/10 07:07:02;;;;;;;0.90;0.90;;;;;;;-2.50;54.13;103082.34;4908705;29;20481;-85
2024/01/10 07:09:30;;;;;;;0.30;0.30;;;;;;;-2.40;54.65;103088.22;4905616;29;20400;-84
2024/01/10 07:11:55;;;;;;;0.30;0.30;;;;;;;-2.29;54.45;103084.56;4897446;29;20928;-83
2024/01/10 07:14:22;;;;;;;0.33;0.33;;;;;;;-2.18;54.50;103075.69;4911749;29;20452;-84
2024/01/10 07:16:50;;;;;;;0.10;0.10;;;;;;;-2.05;54.60;103080.63;4901437;29;20403;-83
2024/01/10 07:19:16;;;;;;;1.25;1.15;;;;;;;-2.01;54.31;103082.31;4905224;29;20450;-83
2024/01/10 07:21:43;;;;;;;0.70;0.70;;;;;;;-2.02;54.60;103085.78;4902117;29;20432;-83
2024/01/10 07:24:11;;;;;;;1.03;1.03;;;;;;;-2.08;54.79;103078.97;4922588;29;20455;-82
2024/01/10 07:26:38;;;;;;;2.17;1.58;;;;;;;-2.15;54.82;103083.41;4914086;29;20426;-84
2024/01/10 07:29:08;;;;;;;1.23;0.80;;;;;;;-2.09;54.91;103087.63;4899211;29;20411;-84
2024/01/10 07:31:35;;;;;;;1.50;1.40;;;;;;;-1.93;54.78;103085.59;4903341;29;20406;-86
2024/01/10 07:34:00;;;;;;;0.50;0.50;;;;;;;-2.05;54.49;103081.50;4904796;29;20409;-84
2024/01/10 07:36:26;;;;;;;0.20;0.20;;;;;;;-2.10;55.03;103096.34;4903162;29;20396;-86
2024/01/10 07:38:53;;;;;;;2.10;1.80;;;;;;;-2.04;55.50;103090.16;4916651;29;20460;-84
2024/01/10 07:41:20;;;;;;;0.20;0.20;;;;;;;-1.70;55.01;103087.75;4896411;29;20403;-84
2024/01/10 07:43:46;;;;;;;0.55;0.55;;;;;;;-1.59;54.70;103085.75;4898787;29;20390;-84
2024/01/10 07:46:17;;;;;;;0.80;0.80;;;;;;;-1.49;54.71;103083.84;4916122;29;20480;-85
2024/01/10 07:48:45;;;;;;;0.40;0.40;;;;;;;-1.33;54.57;103092.16;4916803;29;20428;-84
2024/01/10 07:51:13;;;;;;;1.55;1.35;;;;;;;-1.21;54.31;103094.47;4893186;29;20406;-84
2024/01/10 07:53:39;;;;;;;0.43;0.43;;;;;;;-1.17;54.45;103096.13;4921452;29;20397;-86
2024/01/10 07:56:04;;;;;;;1.00;1.00;;;;;;;-1.11;54.19;103095.13;4928409;29;21022;-85
2024/01/10 07:58:35;;;;;;;1.43;1.43;;;;;;;-0.83;56.14;103097.94;4933503;29;20426;-83
2024/01/10 08:01:01;;;;;;;1.40;1.30;;;;;;;-0.54;54.84;103095.50;4920879;29;20444;-87
2024/01/10 08:03:26;;;;;;;1.87;1.77;;;;;;;-0.55;54.94;103106.81;4921810;29;20381;-87
2024/01/10 08:05:52;;;;;;;1.40;1.30;;;;;;;-0.70;54.59;103103.72;4923696;29;20399;-86
2024/01/10 08:08:22;;;;;;;0.77;0.77;;;;;;;-0.92;54.79;103118.13;4921695;29;20411;-87
2024/01/10 08:10:50;;;;;;;0.73;0.73;;;;;;;-0.94;54.80;103112.94;4919980;29;20428;-86
2024/01/10 08:13:20;;;;;;;0.52;0.52;;;;;;;-0.84;54.64;103114.44;4934297;29;20420;-85
2024/01/10 08:15:46;;;;;;;0.20;0.20;;;;;;;-0.69;53.92;103120.19;4918069;29;20411;-85
2024/01/10 08:18:11;;;;;;;1.40;0.63;;;;;;;-0.67;53.82;103115.78;4919009;29;20416;-86
2024/01/10 08:20:38;;;;;;;0.15;0.15;;;;;;;-0.69;53.97;103114.97;4918500;29;20468;-87
2024/01/10 08:23:03;;;;;;;0.30;0.30;;;;;;;-0.59;53.82;103116.47;4917446;29;20848;-86
2024/01/10 08:25:38;;;;;;;0.63;0.63;;;;;;;-0.51;53.71;103119.72;4921381;29;20892;-85
2024/01/10 08:28:03;;;;;;;1.10;1.00;;;;;;;-0.53;53.63;103110.25;4919183;29;20400;-86
2024/01/10 08:30:29;;;;;;;0.50;0.50;;;;;;;-0.46;54.09;103112.66;4919290;29;20487;-87
2024/01/10 08:32:55;;;;;;;0.50;0.50;;;;;;;-0.34;53.84;103108.88;4935251;29;20404;-86
2024/01/10 08:35:20;;;;;;;0.20;0.20;;;;;;;-0.18;53.18;103111.06;4920328;29;20410;-86
2024/01/10 08:37:46;;;;;;;0.20;0.20;;;;;;;-0.26;53.25;103104.31;4919546;29;20397;-86
2024/01/10 08:40:14;;;;;;;0.30;0.30;;;;;;;-0.24;53.57;103105.13;4921023;29;20839;-86
2024/01/10 08:42:41;;;;;;;0.20;0.20;;;;;;;-0.10;53.21;103109.97;4933261;29;20439;-86
2024/01/10 08:45:09;;;;;;;0.20;0.20;;;;;;;-0.08;53.38;103107.31;4922525;29;20400;-86
2024/01/10 08:47:35;;;;;;;0.45;0.45;;;;;;;-0.09;53.13;103106.47;4920620;29;20395;-87
2024/01/10 08:50:05;;;;;;;0.20;0.20;;;;;;;-0.27;52.94;103106.94;4938104;29;20389;-86
2024/01/10 08:52:31;;;;;;;0.20;0.20;;;;;;;-0.17;53.17;103107.56;4922688;29;20555;-87
2024/01/10 08:54:57;;;;;;;0.10;0.10;;;;;;;0.02;53.14;103102.69;4922467;29;20408;-85
2024/01/10 08:57:26;;;;;;;0.20;0.20;;;;;;;0.06;52.88;103102.59;4931773;29;20452;-85
2024/01/10 08:59:52;;;;;;;0.10;0.10;;;;;;;0.02;52.88;103097.47;4919470;29;20420;-87
2024/01/10 09:02:18;;;;;;;0.40;0.40;;;;;;;-0.03;52.63;103100.25;4921522;29;20412;-87
2024/01/10 09:04:43;;;;;;;0.20;0.20;;;;;;;-0.01;52.80;103099.28;4918791;29;20522;-85
2024/01/10 09:07:09;;;;;;;0.30;0.30;;;;;;;-0.03;52.81;103089.81;4920593;29;20392;-87
2024/01/10 09:09:35;;;;;;;0.97;0.97;;;;;;;0.02;52.94;103084.44;4933220;29;20428;-86
2024/01/10 09:12:00;;;;;;;1.10;1.10;;;;;;;0.16;52.87;103087.53;4916687;29;20487;-86
2024/01/10 09:14:26;;;;;;;0.60;0.60;;;;;;;0.16;52.93;103082.31;4917568;29;20428;-86
2024/01/10 09:16:52;;;;;;;0.27;0.27;;;;;;;0.24;52.51;103084.72;4947060;29;20396;-85
2024/01/10 09:19:18;;;;;;;0.40;0.40;;;;;;;0.25;52.86;103081.19;4922459;29;20471;-86
2024/01/10 09:21:47;;;;;;;0.20;0.20;;;;;;;0.34;52.63;103084.41;4921742;29;20393;-86
2024/01/10 09:24:14;;;;;;;0.35;0.35;;;;;;;0.29;52.33;103081.06;4924224;29;20408;-86
2024/01/10 09:26:41;;;;;;;0.30;0.30;;;;;;;0.14;52.45;103073.69;4939446;29;20404;-87
2024/01/10 09:29:09;;;;;;;0.40;0.40;;;;;;;0.32;52.46;103077.50;4922980;29;20419;-87
2024/01/10 09:31:37;;;;;;;0.50;0.50;;;;;;;0.45;52.07;103084.09;4920673;29;20416;-87
2024/01/10 09:34:03;;;;;;;1.50;1.40;;;;;;;0.41;52.29;103074.63;4916153;29;20443;-87
2024/01/10 09:36:30;;;;;;;0.30;0.30;;;;;;;0.32;52.26;103074.91;4918532;29;20439;-86
2024/01/10 09:38:56;;;;;;;0.70;0.70;;;;;;;0.36;52.32;103079.13;4915843;29;20420;-85
2024/01/10 09:41:22;;;;;;;0.33;0.33;;;;;;;0.39;52.06;103068.59;4901712;29;20492;-87
2024/01/10 09:43:48;;;;;;;0.10;0.10;;;;;;;0.45;52.04;103080.59;4916998;29;20397;-86
2024/01/10 09:46:17;;;;;;;0.60;0.60;;;;;;;0.38;51.51;103072.13;4903582;29;20451;-85
2024/01/10 09:48:44;;;;;;;0.50;0.50;;;;;;;0.33;52.00;103074.00;4888605;29;20987;-85
2024/01/10 09:51:12;;;;;;;0.45;0.45;;;;;;;0.47;51.76;103070.97;4919468;29;20400;-85
2024/01/10 09:53:44;;;;;;;0.40;0.40;;;;;;;0.64;51.87;103065.25;4903024;29;20407;-86
2024/01/10 09:56:10;;;;;;;0.20;0.20;;;;;;;0.68;51.51;103056.41;4903514;29;20425;-87
2024/01/10 09:58:39;;;;;;;0.30;0.30;;;;;;;0.83;51.75;103060.28;4903044;29;20426;-86
2024/01/10 10:01:06;;;;;;;0.32;0.32;;;;;;;0.80;51.48;103050.81;4899916;29;20947;-87
2024/01/10 10:03:37;;;;;;;0.30;0.30;;;;;;;0.82;51.80;103056.84;4900914;29;20491;-86
2024/01/10 10:06:04;;;;;;;0.68;0.68;;;;;;;0.81;51.65;103039.47;4900140;29;20495;-88
2024/01/10 10:08:30;;;;;;;1.55;1.40;;;;;;;0.91;51.84;103050.47;4913377;29;20561;-88
2024/01/10 10:10:55;;;;;;;0.20;0.20;;;;;;;0.94;51.59;103034.72;4917744;29;20396;-85
2024/01/10 10:13:29;;;;;;;0.10;0.10;;;;;;;1.02;51.73;103037.91;4921661;29;20392;-86
2024/01/10 10:16:02;;;;;;;0.30;0.30;;;;;;;1.00;51.46;103037.13;4917551;29;20424;-88
2024/01/10 10:18:29;;;;;;;0.45;0.30;;;;;;;1.09;51.81;103017.69;4900408;29;20412;-86
2024/01/10 10:21:15;;;;;;;0.10;0.10;;;;;;;1.11;51.48;103031.53;4916258;29;20552;-87
2024/01/10 10:23:43;;;;;;;0.20;0.20;;;;;;;1.16;51.74;103019.19;4915209;29;20412;-87
2024/01/10 10:26:19;;;;;;;0.20;0.20;;;;;;;1.30;51.38;103018.72;4915872;29;20491;-87
2024/01/10 10:28:47;;;;;;;0.47;0.47;;;;;;;1.40;51.50;103011.41;4932192;29;20401;-86
2024/01/10 10:31:14;;;;;;;0.57;0.57;;;;;;;1.49;51.23;103013.69;4931797;29;20412;-87
2024/01/10 10:33:40;;;;;;;0.80;0.80;;;;;;;1.42;51.07;103002.59;4917321;29;20772;-85
2024/01/10 10:36:06;;;;;;;0.80;0.80;;;;;;;1.25;51.17;103005.78;4917357;29;20388;-87
2024/01/10 10:38:32;;;;;;;0.40;0.40;;;;;;;1.11;51.33;103000.19;4915757;29;20451;-87
2024/01/10 10:40:59;;;;;;;0.50;0.50;;;;;;;0.98;51.39;102991.06;4916451;29;20416;-86
2024/01/10 10:43:32;;;;;;;0.37;0.37;;;;;;;1.07;51.93;102998.59;4915365;29;20949;-85
2024/01/10 10:45:58;;;;;;;0.30;0.30;;;;;;;1.22;51.40;102998.06;4916037;29;20491;-87
2024/01/10 10:48:26;;;;;;;0.60;0.60;;;;;;;1.23;51.58;102993.72;4915758;29;20384;-86
2024/01/10 10:51:06;;;;;;;0.70;0.70;;;;;;;1.39;51.36;102984.41;4913963;29;20784;-86
2024/01/10 10:53:34;;;;;;;0.63;0.55;;;;;;;1.26;51.38;102983.13;4931535;29;20495;-85
2024/01/10 10:56:01;;;;;;;0.50;0.50;;;;;;;1.32;51.48;102975.94;4932475;29;20448;-85
2024/01/10 10:58:28;;;;;;;0.63;0.63;;;;;;;1.37;50.72;102980.13;4904236;29;20420;-86
2024/01/10 11:00:55;;;;;;;0.43;0.40;;;;;;;1.19;51.01;102971.19;4923930;29;20401;-86
2024/01/10 11:03:31;;;;;;;0.40;0.40;;;;;;;1.31;51.40;102969.03;4926932;29;20412;-86
2024/01/10 11:06:00;;;;;;;0.50;0.50;;;;;;;1.42;51.54;102963.38;4904791;29;20443;-86
2024/01/10 11:08:27;;;;;;;0.63;0.63;;;;;;;1.42;51.48;102967.75;4919908;29;20396;-86
2024/01/10 11:10:56;;;;;;;0.28;0.28;;;;;;;1.44;51.57;102952.88;4919940;29;20400;-87
2024/01/10 11:13:56;;;;;;;0.50;0.50;;;;;;;1.51;51.63;102950.00;4920482;29;20396;-85
2024/01/10 11:16:44;;;;;;;0.30;0.30;;;;;;;1.67;51.50;102954.66;4914517;29;20526;-85
2024/01/10 11:22:01;;;;;;;0.40;0.40;;;;;;;1.63;52.18;102943.47;4884525;29;20444;-88
2024/01/10 11:24:27;;;;;;;0.40;0.40;;;;;;;1.78;51.88;102944.66;4902597;29;20408;-84
2024/01/10 11:27:11;;;;;;;0.50;0.50;;;;;;;1.92;51.55;102944.97;4888720;29;20403;-85
2024/01/10 11:29:39;;;;;;;0.65;0.40;;;;;;;1.77;51.33;102929.88;4887961;29;20412;-86